Time;durP1;ratioP1;P1;durP2;ratioP2;P2;SDS_P1;SDS_P2;PMS_P1;PMS_P2;Temp;Humidity;BMP_temperature;BMP_pressure;BME280_temperature;BME280_humidity;BME280_pressure;Samples;Min_cycle;Max_cycle;Signal;HPM_P1;HPM_P2
2024/03/29 00:00:42;;;;;;;2.10;1.35;;;;;;;1.70;100.00;91719.06;4990478;28;20048;-74
2024/03/29 00:03:08;;;;;;;2.15;1.20;;;;;;;1.67;100.00;91720.34;5005458;28;20034;-74
2024/03/29 00:05:35;;;;;;;1.92;1.38;;;;;;;1.66;100.00;91722.09;4993962;28;20053;-74
2024/03/29 00:08:01;;;;;;;2.30;1.45;;;;;;;1.65;100.00;91723.16;5004134;28;20488;-75
2024/03/29 00:10:26;;;;;;;1.42;1.10;;;;;;;1.65;100.00;91730.13;4984662;28;20100;-75
2024/03/29 00:12:52;;;;;;;2.53;1.30;;;;;;;1.62;100.00;91733.19;5008739;28;20033;-74
2024/03/29 00:15:18;;;;;;;2.50;1.33;;;;;;;1.63;100.00;91739.91;5007536;28;20406;-74
2024/03/29 00:17:43;;;;;;;1.20;1.00;;;;;;;1.61;100.00;91747.88;4992605;28;20038;-74
2024/03/29 00:20:09;;;;;;;1.92;1.33;;;;;;;1.60;100.00;91735.22;5008038;28;20048;-74
2024/03/29 00:22:35;;;;;;;1.98;1.33;;;;;;;1.59;100.00;91737.03;4993429;28;20117;-74
2024/03/29 00:25:00;;;;;;;2.10;1.33;;;;;;;1.56;100.00;91744.50;5004267;28;20437;-74
2024/03/29 00:27:28;;;;;;;2.58;1.20;;;;;;;1.56;100.00;91744.50;4990512;28;20403;-75
2024/03/29 00:29:54;;;;;;;1.25;1.00;;;;;;;1.56;100.00;91744.50;5007407;28;20069;-75
2024/03/29 00:32:23;;;;;;;1.48;1.17;;;;;;;1.57;100.00;91749.41;5004516;28;20410;-74
2024/03/29 00:34:52;;;;;;;1.60;1.10;;;;;;;1.59;100.00;91762.06;5004972;28;20034;-74
2024/03/29 00:37:18;;;;;;;2.05;1.33;;;;;;;1.60;100.00;91768.78;4998921;28;20034;-74
2024/03/29 00:39:45;;;;;;;1.65;1.15;;;;;;;1.65;100.00;91784.31;5003831;28;20372;-74
2024/03/29 00:42:15;;;;;;;1.20;1.10;;;;;;;1.67;100.00;91787.41;5006421;28;20411;-74
2024/03/29 00:44:41;;;;;;;1.85;1.25;;;;;;;1.76;100.00;91792.91;5002444;28;20060;-74
2024/03/29 00:47:07;;;;;;;2.10;1.30;;;;;;;1.80;100.00;91793.94;5004042;28;20038;-75
2024/03/29 00:49:33;;;;;;;2.60;1.50;;;;;;;1.81;100.00;91792.91;5012032;28;20041;-75
2024/03/29 00:51:59;;;;;;;2.10;1.50;;;;;;;1.82;100.00;91799.63;4990812;28;20037;-75
2024/03/29 00:54:25;;;;;;;2.05;1.30;;;;;;;1.82;100.00;91808.16;5008679;28;20488;-75
2024/03/29 00:56:50;;;;;;;2.00;1.40;;;;;;;1.84;100.00;91813.06;4999279;28;20467;-75
2024/03/29 00:59:16;;;;;;;2.35;1.38;;;;;;;1.87;100.00;91807.41;5003532;28;20053;-75
2024/03/29 01:01:42;;;;;;;4.68;1.60;;;;;;;1.91;100.00;91807.69;5002133;28;20030;-74
2024/03/29 01:04:08;;;;;;;4.05;1.50;;;;;;;1.95;100.00;91799.19;5006000;28;20038;-75
2024/03/29 01:06:33;;;;;;;2.55;1.48;;;;;;;2.00;100.00;91801.00;5009601;28;20580;-75
2024/03/29 01:09:00;;;;;;;2.50;1.50;;;;;;;2.06;100.00;91794.84;5006584;28;20030;-74
2024/03/29 01:11:26;;;;;;;2.13;1.40;;;;;;;2.10;100.00;91795.91;5001301;28;20656;-74
2024/03/29 01:13:52;;;;;;;1.63;1.23;;;;;;;2.16;100.00;91804.44;4986793;28;20092;-74
2024/03/29 01:16:18;;;;;;;3.58;1.40;;;;;;;2.21;100.00;91802.69;5003391;28;20037;-74
2024/03/29 01:18:43;;;;;;;2.63;1.40;;;;;;;2.27;100.00;91788.78;4998864;28;20082;-75
2024/03/29 01:21:09;;;;;;;2.60;1.52;;;;;;;2.32;100.00;91790.59;5003493;28;20045;-75
2024/03/29 01:23:35;;;;;;;2.45;1.50;;;;;;;2.38;100.00;91791.38;4989629;28;20065;-74
2024/03/29 01:26:01;;;;;;;4.60;1.60;;;;;;;2.44;100.00;91785.97;4973533;28;20351;-75
2024/03/29 01:28:26;;;;;;;2.78;1.40;;;;;;;2.50;100.00;91797.13;4991132;28;20088;-74
2024/03/29 01:30:55;;;;;;;2.33;1.50;;;;;;;2.63;100.00;91811.34;4982304;28;20188;-74
2024/03/29 01:33:21;;;;;;;3.25;1.60;;;;;;;2.70;100.00;91819.66;5000751;28;20526;-74
2024/03/29 01:35:47;;;;;;;2.92;1.67;;;;;;;2.76;100.00;91810.13;5000760;28;20034;-75
2024/03/29 01:38:14;;;;;;;2.60;1.58;;;;;;;2.88;100.00;91821.00;5002014;28;20092;-75
2024/03/29 01:40:40;;;;;;;3.95;1.65;;;;;;;2.96;100.00;91819.75;4988049;28;20068;-75
2024/03/29 01:43:07;;;;;;;3.63;1.63;;;;;;;2.99;100.00;91817.41;5004181;28;20057;-75
2024/03/29 01:45:34;;;;;;;2.50;1.42;;;;;;;2.99;100.00;91812.22;5001134;28;20057;-75
2024/03/29 01:48:00;;;;;;;2.60;1.60;;;;;;;3.01;100.00;91812.75;5004217;28;20099;-75
2024/03/29 01:50:26;;;;;;;2.92;1.70;;;;;;;3.01;100.00;91819.75;5006521;28;20026;-75
2024/03/29 01:52:52;;;;;;;2.15;1.48;;;;;;;3.00;100.00;91813.78;4987033;28;20510;-74
2024/03/29 01:55:18;;;;;;;3.03;1.60;;;;;;;3.00;100.00;91820.78;5006649;28;20108;-74
2024/03/29 01:57:44;;;;;;;2.63;1.60;;;;;;;2.98;100.00;91815.09;5001649;28;20045;-75
2024/03/29 02:00:10;;;;;;;2.72;1.75;;;;;;;2.99;100.00;91811.47;5005340;28;20033;-75
2024/03/29 02:02:36;;;;;;;5.03;2.00;;;;;;;2.98;100.00;91815.84;5004110;28;20038;-75
2024/03/29 02:05:04;;;;;;;1.98;1.40;;;;;;;3.02;100.00;91811.72;5004597;28;20032;-75
2024/03/29 02:07:30;;;;;;;3.20;1.58;;;;;;;3.06;100.00;91807.59;5001819;28;20037;-75
2024/03/29 02:09:56;;;;;;;3.28;1.60;;;;;;;3.08;100.00;91813.28;4990299;28;20476;-75
2024/03/29 02:12:21;;;;;;;2.05;1.45;;;;;;;3.10;100.00;91797.50;5008088;28;20038;-75
2024/03/29 02:14:47;;;;;;;3.70;1.65;;;;;;;3.17;100.00;91810.19;4990958;28;20053;-75
2024/03/29 02:17:12;;;;;;;3.80;1.83;;;;;;;3.17;100.00;91808.38;4973320;28;20073;-75
2024/03/29 02:19:38;;;;;;;3.60;1.70;;;;;;;3.18;100.00;91809.94;5003871;28;20041;-75
2024/03/29 02:22:07;;;;;;;2.90;1.50;;;;;;;3.18;100.00;91815.13;5005807;28;20097;-75
2024/03/29 02:24:33;;;;;;;3.47;1.60;;;;;;;3.30;100.00;91812.28;5002764;28;20046;-75
2024/03/29 02:26:59;;;;;;;6.82;1.60;;;;;;;3.33;100.00;91809.97;4994245;28;20026;-74
2024/03/29 02:29:25;;;;;;;2.20;1.42;;;;;;;3.35;100.00;91799.34;4981423;28;20026;-75
2024/03/29 02:31:50;;;;;;;2.60;1.60;;;;;;;3.36;100.00;91806.09;5002210;28;20049;-75
2024/03/29 02:34:16;;;;;;;2.70;1.70;;;;;;;3.38;100.00;91821.34;5005850;28;20036;-75
2024/03/29 02:36:43;;;;;;;5.22;1.67;;;;;;;3.39;100.00;91822.91;5001514;28;20070;-75
2024/03/29 02:39:10;;;;;;;3.65;1.60;;;;;;;3.38;100.00;91829.09;5001822;28;20589;-74
2024/03/29 02:41:35;;;;;;;2.45;1.50;;;;;;;3.37;100.00;91828.31;5005424;28;20057;-75
2024/03/29 02:44:01;;;;;;;2.97;1.48;;;;;;;3.37;100.00;91830.13;5000334;28;20386;-75
2024/03/29 02:46:27;;;;;;;2.50;1.45;;;;;;;3.37;100.00;91823.16;5002471;28;20533;-75
2024/03/29 02:48:52;;;;;;;2.47;1.50;;;;;;;3.39;100.00;91828.84;4988954;28;20030;-75
2024/03/29 02:51:18;;;;;;;2.85;1.50;;;;;;;3.40;100.00;91829.63;5006792;28;20124;-74
2024/03/29 02:53:44;;;;;;;2.05;1.40;;;;;;;3.41;100.00;91831.94;5004555;28;20030;-75
2024/03/29 02:56:10;;;;;;;4.20;1.60;;;;;;;3.43;100.00;91839.47;4993173;28;20407;-75
2024/03/29 02:58:35;;;;;;;4.18;1.50;;;;;;;3.46;100.00;91847.47;5006646;28;20034;-75
2024/03/29 03:01:08;;;;;;;2.50;1.50;;;;;;;3.49;100.00;91838.41;4994275;28;20031;-75
2024/03/29 03:03:35;;;;;;;2.80;1.50;;;;;;;3.51;100.00;91844.91;5006449;28;20034;-75
2024/03/29 03:06:02;;;;;;;4.03;1.45;;;;;;;3.82;100.00;91854.47;5008728;28;20101;-75
2024/03/29 03:11:13;;;;;;;5.35;1.60;;;;;;;3.77;100.00;91852.66;5005835;28;20034;-75
2024/03/29 03:13:39;;;;;;;2.35;1.50;;;;;;;3.74;100.00;91859.16;5009316;28;20466;-75
2024/03/29 03:16:05;;;;;;;3.47;1.40;;;;;;;3.73;100.00;91855.00;4984909;28;20096;-75
2024/03/29 03:18:31;;;;;;;3.67;1.48;;;;;;;3.73;100.00;91852.41;5008425;28;20080;-75
2024/03/29 03:20:57;;;;;;;3.20;1.50;;;;;;;3.72;100.00;91850.88;5004376;28;20088;-75
2024/03/29 03:23:24;;;;;;;2.28;1.40;;;;;;;3.74;100.00;91853.19;4993744;28;20132;-75
2024/03/29 03:26:00;;;;;;;6.20;1.48;;;;;;;3.79;100.00;91857.59;5006098;28;20055;-75
2024/03/29 03:28:25;;;;;;;5.63;1.70;;;;;;;3.81;100.00;91874.44;4990593;28;20029;-75
2024/03/29 03:30:52;;;;;;;2.85;1.52;;;;;;;3.81;100.00;91871.84;5010628;28;20037;-75
2024/03/29 03:33:18;;;;;;;4.93;1.60;;;;;;;3.84;100.00;91881.66;5002786;28;20038;-75
2024/03/29 03:35:44;;;;;;;3.72;1.45;;;;;;;3.84;100.00;91868.72;5010003;28;20588;-75
2024/03/29 03:38:11;;;;;;;2.22;1.45;;;;;;;3.87;100.00;91872.59;5009712;28;20559;-75
2024/03/29 03:40:37;;;;;;;2.65;1.55;;;;;;;3.88;100.00;91868.97;5008038;28;20065;-75
2024/03/29 03:43:05;;;;;;;3.50;1.58;;;;;;;3.90;100.00;91867.69;4993691;28;20568;-75
2024/03/29 03:45:38;;;;;;;5.55;1.70;;;;;;;3.92;100.00;91872.63;5008288;28;20395;-75
2024/03/29 03:48:05;;;;;;;4.07;1.52;;;;;;;3.93;100.00;91874.16;4991239;28;20034;-74
2024/03/29 03:50:30;;;;;;;2.88;1.50;;;;;;;3.94;100.00;91870.53;5003468;28;20041;-75
2024/03/29 03:52:56;;;;;;;3.53;1.42;;;;;;;3.96;100.00;91871.84;5007513;28;20057;-75
2024/03/29 03:55:22;;;;;;;3.03;1.70;;;;;;;3.98;100.00;91863.78;4992724;28;20500;-74
2024/03/29 03:57:48;;;;;;;4.00;1.70;;;;;;;3.97;100.00;91863.00;5002782;28;20333;-75
2024/03/29 04:00:14;;;;;;;3.05;1.67;;;;;;;3.99;100.00;91862.00;5001576;28;20044;-75
2024/03/29 04:02:39;;;;;;;5.43;1.70;;;;;;;3.99;100.00;91867.94;5010592;28;20380;-75
2024/03/29 04:05:06;;;;;;;3.58;1.90;;;;;;;4.01;100.00;91858.09;5007322;28;20156;-74
2024/03/29 04:07:32;;;;;;;5.32;1.50;;;;;;;4.02;100.00;91864.06;5006305;28;20052;-75
2024/03/29 04:09:57;;;;;;;3.03;1.55;;;;;;;4.04;100.00;91872.34;5009159;28;20034;-75
2024/03/29 04:12:23;;;;;;;3.72;1.50;;;;;;;4.08;100.00;91876.75;5009470;28;20037;-75
2024/03/29 04:14:48;;;;;;;2.80;1.73;;;;;;;4.12;100.00;91880.38;5002784;28;20511;-75
2024/03/29 04:17:14;;;;;;;4.13;1.77;;;;;;;4.17;100.00;91884.75;5008898;28;20489;-75
2024/03/29 04:19:40;;;;;;;4.40;1.85;;;;;;;4.28;100.00;91878.53;5002061;28;20411;-75
2024/03/29 04:22:05;;;;;;;3.80;1.40;;;;;;;4.33;100.00;91888.88;4984421;28;20042;-75
2024/03/29 04:24:31;;;;;;;3.85;1.60;;;;;;;4.30;100.00;91897.19;5001902;28;20042;-75
2024/03/29 04:26:57;;;;;;;4.63;1.85;;;;;;;4.29;100.00;91900.81;5003140;28;20034;-75
2024/03/29 04:29:23;;;;;;;3.92;1.58;;;;;;;4.24;100.00;91898.22;4999262;28;20506;-75
2024/03/29 04:31:48;;;;;;;3.00;1.55;;;;;;;4.22;100.00;91899.53;5002880;28;20117;-75
2024/03/29 04:34:14;;;;;;;5.05;1.70;;;;;;;4.21;100.00;91903.94;5006144;28;20030;-75
2024/03/29 04:36:40;;;;;;;4.75;1.92;;;;;;;4.18;100.00;91886.31;4988207;28;20031;-75
2024/03/29 04:39:06;;;;;;;4.72;1.60;;;;;;;4.20;100.00;91897.19;5003793;28;20897;-75
2024/03/29 04:41:34;;;;;;;4.15;1.83;;;;;;;4.20;100.00;91897.19;5008224;28;20529;-75
2024/03/29 04:44:04;;;;;;;4.15;1.52;;;;;;;4.19;100.00;91890.47;5010545;28;20057;-75
2024/03/29 04:46:31;;;;;;;5.13;1.98;;;;;;;4.18;100.00;91886.31;4991340;28;20045;-75
2024/03/29 04:48:57;;;;;;;6.38;1.98;;;;;;;4.21;100.00;91890.19;4998744;28;20029;-75
2024/03/29 04:51:23;;;;;;;3.33;1.67;;;;;;;4.20;100.00;91886.81;5007500;28;20526;-75
2024/03/29 04:53:48;;;;;;;3.80;1.90;;;;;;;4.21;100.00;91893.56;5010204;28;20038;-75
2024/03/29 04:56:14;;;;;;;3.85;1.77;;;;;;;4.20;100.00;91899.78;5007662;28;20069;-75
2024/03/29 04:58:40;;;;;;;3.33;1.60;;;;;;;4.24;100.00;91900.81;5005545;28;20033;-75
2024/03/29 05:01:06;;;;;;;7.10;2.28;;;;;;;4.24;100.00;91905.22;5005477;28;20525;-75
2024/03/29 05:03:32;;;;;;;4.90;1.70;;;;;;;4.25;100.00;91904.94;5010887;28;20042;-75
2024/03/29 05:05:58;;;;;;;4.30;1.70;;;;;;;4.26;100.00;91906.50;5010716;28;20525;-75
2024/03/29 05:08:23;;;;;;;6.32;1.85;;;;;;;4.28;100.00;91909.63;5002565;28;20025;-75
2024/03/29 05:10:50;;;;;;;7.78;1.90;;;;;;;4.30;100.00;91922.28;5008428;28;20088;-75
2024/03/29 05:13:16;;;;;;;4.90;1.90;;;;;;;4.31;100.00;91922.03;5001777;28;20040;-75
2024/03/29 05:15:43;;;;;;;4.43;1.70;;;;;;;4.36;100.00;91922.03;4989944;28;20041;-75
2024/03/29 05:18:09;;;;;;;5.10;2.47;;;;;;;4.40;100.00;91927.47;5008041;28;20022;-75
2024/03/29 05:20:34;;;;;;;5.95;2.10;;;;;;;4.30;100.00;91924.88;4998761;28;20054;-75
2024/03/29 05:23:00;;;;;;;4.15;2.00;;;;;;;4.25;100.00;91915.31;5008375;28;20533;-75
2024/03/29 05:25:26;;;;;;;5.63;2.22;;;;;;;4.20;100.00;91910.13;5007177;28;20045;-74
2024/03/29 05:27:52;;;;;;;5.25;2.15;;;;;;;4.20;100.00;91915.31;5002814;28;20036;-75
2024/03/29 05:30:17;;;;;;;5.57;2.08;;;;;;;4.21;100.00;91911.72;5003457;28;20026;-75
2024/03/29 05:32:46;;;;;;;5.05;1.83;;;;;;;4.21;100.00;91924.66;5007724;28;20022;-75
2024/03/29 05:35:13;;;;;;;4.57;2.33;;;;;;;4.22;100.00;91913.25;4990200;28;20057;-75
2024/03/29 05:37:39;;;;;;;4.53;2.13;;;;;;;4.24;100.00;91918.94;5004305;28;20035;-75
2024/03/29 05:40:07;;;;;;;6.15;2.08;;;;;;;4.25;100.00;91904.19;5005149;28;20034;-75
2024/03/29 05:42:34;;;;;;;4.55;2.08;;;;;;;4.27;100.00;91902.88;4991409;28;20414;-76
2024/03/29 05:45:00;;;;;;;4.53;2.15;;;;;;;4.37;100.00;91909.88;4987703;28;20121;-75
2024/03/29 05:47:25;;;;;;;7.22;2.50;;;;;;;4.30;100.00;91915.31;4996342;28;20116;-75
2024/03/29 05:49:51;;;;;;;5.65;2.63;;;;;;;4.26;100.00;91909.09;5000434;28;20044;-75
2024/03/29 05:52:17;;;;;;;5.65;2.60;;;;;;;4.17;100.00;91905.50;5000403;28;20080;-75
2024/03/29 05:54:44;;;;;;;4.57;2.50;;;;;;;4.14;100.00;91904.19;5007287;28;20042;-74
2024/03/29 05:57:10;;;;;;;4.82;2.47;;;;;;;4.12;100.00;91905.47;5005688;28;20038;-75
2024/03/29 05:59:36;;;;;;;4.75;2.13;;;;;;;4.15;100.00;91923.09;4987502;28;20053;-75
2024/03/29 06:02:02;;;;;;;4.55;2.05;;;;;;;4.13;100.00;91913.00;5006050;28;20033;-74
2024/03/29 06:04:35;;;;;;;4.43;2.20;;;;;;;4.15;100.00;91910.16;5002674;28;20042;-75
2024/03/29 06:07:02;;;;;;;3.22;1.70;;;;;;;4.15;100.00;91902.38;5000472;28;20037;-75
2024/03/29 06:09:29;;;;;;;4.32;1.88;;;;;;;4.16;100.00;91909.09;4984820;28;20087;-75
2024/03/29 06:11:55;;;;;;;3.13;1.75;;;;;;;4.18;100.00;91907.03;4987782;28;20442;-75
2024/03/29 06:17:22;;;;;;;3.47;1.98;;;;;;;4.20;100.00;91901.59;5000332;28;20577;-75
2024/03/29 06:19:55;;;;;;;2.47;1.40;;;;;;;4.22;100.00;91904.72;5001507;28;20035;-76
2024/03/29 06:22:21;;;;;;;2.92;1.52;;;;;;;4.22;100.00;91908.06;5007867;28;20045;-75
2024/03/29 06:24:48;;;;;;;4.43;1.70;;;;;;;4.26;100.00;91919.47;4987412;28;20479;-75
2024/03/29 06:27:17;;;;;;;69.35;2.47;;;;;;;4.31;100.00;91932.41;4999653;28;20045;-75
2024/03/29 06:29:47;;;;;;;776.95;17.65;;;;;;;4.00;100.00;91933.47;5003154;28;20030;-74
2024/03/29 06:32:12;;;;;;;634.03;13.65;;;;;;;3.81;100.00;91926.22;4984839;28;20540;-75
2024/03/29 06:34:39;;;;;;;2.90;1.67;;;;;;;3.74;100.00;91918.69;5000223;28;20029;-74
2024/03/29 06:37:05;;;;;;;2.70;1.60;;;;;;;3.73;100.00;91919.72;5004815;28;20120;-75
2024/03/29 06:39:30;;;;;;;2.20;1.30;;;;;;;3.75;100.00;91925.41;4984900;28;20507;-74
2024/03/29 06:41:56;;;;;;;2.08;1.30;;;;;;;3.79;100.00;91919.72;5001941;28;20042;-74
2024/03/29 06:44:22;;;;;;;1.20;1.10;;;;;;;3.83;100.00;91929.31;4983144;28;20637;-74
2024/03/29 06:46:47;;;;;;;2.08;1.30;;;;;;;3.88;100.00;91931.91;5004467;28;20042;-75
2024/03/29 06:49:13;;;;;;;2.50;1.30;;;;;;;3.95;100.00;91936.81;5008462;28;20080;-75
2024/03/29 06:51:42;;;;;;;1.83;1.20;;;;;;;3.96;100.00;91936.56;4988638;28;20038;-75
2024/03/29 06:54:08;;;;;;;1.52;1.10;;;;;;;3.99;100.00;91927.50;4994297;28;20264;-74
2024/03/29 06:56:34;;;;;;;1.58;1.10;;;;;;;4.03;100.00;91927.75;4988503;28;20378;-76
2024/03/29 06:58:59;;;;;;;1.80;1.20;;;;;;;4.05;100.00;91930.88;4999188;28;20048;-75
2024/03/29 07:01:25;;;;;;;1.75;1.20;;;;;;;4.08;100.00;91936.31;5005258;28;20097;-75
2024/03/29 07:03:51;;;;;;;2.25;1.40;;;;;;;4.10;100.00;91938.66;4999267;28;20030;-75
2024/03/29 07:06:16;;;;;;;1.13;1.00;;;;;;;4.11;100.00;91938.38;5000711;28;20388;-74
2024/03/29 07:08:42;;;;;;;1.70;1.33;;;;;;;4.13;100.00;91932.94;4989138;28;20030;-75
2024/03/29 07:11:07;;;;;;;2.28;1.40;;;;;;;4.14;100.00;91919.75;5002655;28;20073;-75
2024/03/29 07:13:33;;;;;;;2.42;1.15;;;;;;;4.18;100.00;91919.97;4999793;28;20034;-75
2024/03/29 07:16:02;;;;;;;1.85;1.20;;;;;;;4.22;100.00;91922.84;5004786;28;20392;-75
2024/03/29 07:18:28;;;;;;;1.88;1.10;;;;;;;4.24;100.00;91913.75;4999476;28;20495;-75
2024/03/29 07:20:53;;;;;;;1.92;1.23;;;;;;;4.29;100.00;91921.53;5001239;28;20038;-75
2024/03/29 07:23:20;;;;;;;63.28;2.33;;;;;;;4.36;100.00;91927.22;5003384;28;20515;-75
2024/03/29 07:26:00;;;;;;;147.23;4.13;;;;;;;4.30;100.00;91919.72;4979649;28;20120;-75
2024/03/29 07:28:27;;;;;;;1.75;1.20;;;;;;;4.25;100.00;91925.66;4988588;28;20034;-75
2024/03/29 07:30:53;;;;;;;26.50;1.58;;;;;;;4.26;100.00;91932.44;4981397;28;20054;-74
2024/03/29 07:33:28;;;;;;;10.35;1.30;;;;;;;4.20;100.00;91930.88;5001192;28;20046;-75
2024/03/29 07:35:54;;;;;;;0.90;0.82;;;;;;;4.20;100.00;91933.47;5006122;28;20080;-75
2024/03/29 07:38:21;;;;;;;1.38;1.10;;;;;;;4.24;100.00;91926.72;5004481;28;20030;-75
2024/03/29 07:40:48;;;;;;;1.98;1.17;;;;;;;4.27;100.00;91935.78;5002214;28;20038;-75
2024/03/29 07:43:14;;;;;;;3.70;1.67;;;;;;;4.38;100.00;91948.47;5006842;28;20345;-75
2024/03/29 07:45:45;;;;;;;106.53;3.28;;;;;;;4.55;100.00;91950.03;5004936;28;20039;-74
2024/03/29 07:48:15;;;;;;;47.80;2.55;;;;;;;4.45;100.00;91958.56;4971974;28;20495;-75
2024/03/29 07:50:42;;;;;;;233.32;6.13;;;;;;;4.32;100.00;91967.66;4990742;28;20073;-75
2024/03/29 07:53:09;;;;;;;52.72;2.22;;;;;;;4.24;100.00;91967.41;4983267;28;20057;-75
2024/03/29 07:55:37;;;;;;;11.80;1.27;;;;;;;4.32;100.00;91983.22;5001526;28;20621;-75
2024/03/29 07:58:04;;;;;;;253.60;6.43;;;;;;;4.28;100.00;91989.16;4998675;28;20040;-75
2024/03/29 08:00:33;;;;;;;168.10;4.10;;;;;;;4.21;100.00;91991.22;4998162;28;20129;-75
2024/03/29 08:03:00;;;;;;;185.52;4.70;;;;;;;4.15;100.00;91998.22;4969674;28;20207;-76
2024/03/29 08:05:27;;;;;;;113.97;2.97;;;;;;;4.04;100.00;92007.03;4999766;28;20488;-77
2024/03/29 08:07:53;;;;;;;106.80;3.08;;;;;;;3.89;100.00;92021.47;5003468;28;20469;-77
2024/03/29 08:10:19;;;;;;;409.38;7.75;;;;;;;3.91;100.00;92027.19;4985854;28;20022;-76
2024/03/29 08:12:44;;;;;;;12.50;1.50;;;;;;;3.84;100.00;92024.06;4999255;28;20038;-77
2024/03/29 08:15:10;;;;;;;1.50;1.10;;;;;;;3.85;100.00;92027.44;5004370;28;20038;-78
2024/03/29 08:17:36;;;;;;;5.90;1.10;;;;;;;3.86;100.00;92026.41;5000706;28;20114;-75
2024/03/29 08:20:03;;;;;;;0.80;0.80;;;;;;;3.90;100.00;92037.81;4980303;28;20049;-76
2024/03/29 08:22:28;;;;;;;0.80;0.80;;;;;;;3.91;100.00;92040.13;4986781;28;20046;-75
2024/03/29 08:24:55;;;;;;;1.10;1.00;;;;;;;3.96;100.00;92042.75;5003517;28;20042;-76
2024/03/29 08:27:21;;;;;;;0.93;0.90;;;;;;;4.06;100.00;92041.22;5004406;28;20034;-76
2024/03/29 08:29:49;;;;;;;1.10;1.00;;;;;;;4.06;100.00;92043.81;5006702;28;20033;-76
2024/03/29 08:32:15;;;;;;;1.00;0.90;;;;;;;4.10;100.00;92047.44;5007371;28;20041;-76
2024/03/29 08:34:40;;;;;;;0.60;0.60;;;;;;;4.12;100.00;92055.72;4985236;28;20310;-75
2024/03/29 08:37:06;;;;;;;1.40;1.00;;;;;;;4.16;100.00;92061.94;4999935;28;20030;-76
2024/03/29 08:39:32;;;;;;;1.00;0.90;;;;;;;4.18;100.00;92059.88;4986466;28;20057;-77
2024/03/29 08:42:04;;;;;;;0.80;0.80;;;;;;;4.21;100.00;92054.19;5002905;28;20030;-75
2024/03/29 08:44:33;;;;;;;1.27;0.90;;;;;;;4.22;100.00;92055.75;5004692;28;20038;-76
2024/03/29 08:47:01;;;;;;;1.02;0.75;;;;;;;4.22;100.00;92055.75;5004430;28;20101;-75
2024/03/29 08:49:30;;;;;;;0.60;0.60;;;;;;;4.26;100.00;92067.16;4999082;28;20030;-75
2024/03/29 08:51:57;;;;;;;0.90;0.90;;;;;;;4.29;100.00;92065.88;4986015;28;20034;-74
2024/03/29 08:54:23;;;;;;;0.63;0.63;;;;;;;4.32;100.00;92060.97;4957636;28;20491;-75
2024/03/29 08:56:48;;;;;;;1.02;0.90;;;;;;;4.34;100.00;92061.44;5003163;28;20120;-74
2024/03/29 08:59:15;;;;;;;1.27;0.90;;;;;;;4.38;100.00;92065.09;5000488;28;20045;-76
2024/03/29 09:01:46;;;;;;;0.80;0.80;;;;;;;4.44;100.00;92058.09;4989917;28;20037;-76
2024/03/29 09:04:11;;;;;;;0.63;0.63;;;;;;;4.47;100.00;92056.81;4988514;28;20045;-76
2024/03/29 09:06:38;;;;;;;0.88;0.80;;;;;;;4.48;100.00;92059.16;4985789;28;20030;-76
2024/03/29 09:09:06;;;;;;;0.95;0.88;;;;;;;4.50;100.00;92046.72;4999906;28;20038;-75
2024/03/29 09:11:33;;;;;;;0.80;0.80;;;;;;;4.58;100.00;92048.78;5000730;28;20029;-74
2024/03/29 09:13:58;;;;;;;0.80;0.80;;;;;;;4.65;100.00;92048.50;5008353;28;20034;-75
2024/03/29 09:16:27;;;;;;;0.73;0.73;;;;;;;4.71;100.00;92055.25;4984859;28;20275;-76
2024/03/29 09:18:54;;;;;;;0.80;0.80;;;;;;;4.76;100.00;92050.06;5005345;28;20128;-75
2024/03/29 09:21:20;;;;;;;1.13;1.00;;;;;;;4.84;100.00;92050.56;5002555;28;20511;-75
2024/03/29 09:23:46;;;;;;;78.20;2.63;;;;;;;4.89;100.00;92059.13;5002154;28;20044;-75
2024/03/29 09:26:14;;;;;;;217.88;4.35;;;;;;;4.76;100.00;92057.84;5001515;28;20029;-76
2024/03/29 09:28:40;;;;;;;204.75;4.30;;;;;;;4.62;100.00;92059.41;4975919;28;20042;-76
2024/03/29 09:31:05;;;;;;;189.95;4.10;;;;;;;4.47;100.00;92052.41;4991471;28;20038;-75
2024/03/29 09:33:31;;;;;;;37.85;1.92;;;;;;;4.60;100.00;92056.28;4985718;28;20443;-76
2024/03/29 09:35:58;;;;;;;37.22;2.10;;;;;;;4.64;100.00;92064.31;5007593;28;20030;-76
2024/03/29 09:38:25;;;;;;;3.88;0.60;;;;;;;4.79;100.00;92069.50;4991329;28;20042;-75
2024/03/29 09:41:05;;;;;;;81.63;2.40;;;;;;;4.65;100.00;92084.03;5001710;28;20044;-76
2024/03/29 09:43:31;;;;;;;4.47;0.65;;;;;;;4.46;100.00;92087.13;4999026;28;20030;-76
2024/03/29 09:45:56;;;;;;;193.52;4.57;;;;;;;4.29;100.00;92082.19;5001260;28;20558;-76
2024/03/29 09:48:23;;;;;;;141.65;3.35;;;;;;;4.27;100.00;92084.25;5006813;28;20041;-77
2024/03/29 09:50:52;;;;;;;153.52;4.03;;;;;;;4.19;100.00;92082.19;4990509;28;20022;-74
2024/03/29 09:53:20;;;;;;;23.77;1.48;;;;;;;4.16;100.00;92073.09;4983674;28;20455;-76
2024/03/29 09:55:47;;;;;;;29.73;1.80;;;;;;;4.22;100.00;92071.28;4983226;28;20038;-75
2024/03/29 09:58:12;;;;;;;10.45;1.13;;;;;;;4.43;100.00;92082.44;4973334;28;20041;-76
2024/03/29 10:00:38;;;;;;;74.57;5.47;;;;;;;4.56;100.00;92086.34;5004669;28;20446;-76
2024/03/29 10:03:07;;;;;;;13.57;2.53;;;;;;;4.47;100.00;92088.69;4988123;28;20072;-76
2024/03/29 10:05:34;;;;;;;14.77;1.77;;;;;;;4.44;100.00;92089.22;4997027;28;20018;-76
2024/03/29 10:08:04;;;;;;;73.05;2.47;;;;;;;4.38;100.00;92080.63;4969279;28;20046;-76
2024/03/29 10:10:32;;;;;;;129.80;4.03;;;;;;;4.43;100.00;92081.69;4976810;28;20041;-76
2024/03/29 10:12:58;;;;;;;1.73;1.15;;;;;;;4.42;100.00;92080.13;5004324;28;20081;-76
2024/03/29 10:15:27;;;;;;;15.57;2.10;;;;;;;4.48;100.00;92079.09;4988127;28;21599;-76
2024/03/29 10:17:53;;;;;;;2.67;1.70;;;;;;;4.53;100.00;92079.13;4995648;28;20089;-76
2024/03/29 10:20:19;;;;;;;2.80;1.60;;;;;;;4.57;100.00;92080.13;4987367;28;20683;-76
2024/03/29 10:22:46;;;;;;;3.28;1.73;;;;;;;4.63;100.00;92065.38;5004145;28;20050;-76
2024/03/29 10:25:15;;;;;;;33.47;2.67;;;;;;;4.70;100.00;92077.03;4973748;28;20499;-76
2024/03/29 10:27:41;;;;;;;177.65;5.30;;;;;;;4.90;100.00;92085.84;5000548;28;20487;-76
2024/03/29 10:30:08;;;;;;;71.00;2.65;;;;;;;4.93;100.00;92080.13;4987135;28;20030;-76
2024/03/29 10:32:39;;;;;;;127.03;4.45;;;;;;;4.76;100.00;92076.00;4997636;28;20042;-76
2024/03/29 10:35:05;;;;;;;51.65;1.90;;;;;;;4.67;100.00;92071.59;4998451;28;20451;-78
2024/03/29 10:37:33;;;;;;;17.10;1.30;;;;;;;4.62;100.00;92067.19;5004835;28;20033;-77
2024/03/29 10:40:03;;;;;;;13.82;1.40;;;;;;;4.58;100.00;92069.50;4984849;28;20052;-75
2024/03/29 10:42:33;;;;;;;44.95;2.15;;;;;;;4.61;100.00;92083.00;5002516;28;20423;-76
2024/03/29 10:44:59;;;;;;;51.17;2.13;;;;;;;4.67;100.00;92072.38;4984127;28;20460;-76
2024/03/29 10:47:25;;;;;;;169.73;4.57;;;;;;;4.52;100.00;92072.34;4971757;28;20206;-76
2024/03/29 10:49:51;;;;;;;64.07;2.20;;;;;;;4.42;100.00;92074.94;4990940;28;20113;-76
2024/03/29 10:52:17;;;;;;;12.57;1.30;;;;;;;4.41;100.00;92081.16;4991875;28;20105;-76
2024/03/29 10:54:45;;;;;;;1.38;1.08;;;;;;;4.43;100.00;92076.50;5009382;28;20034;-76
2024/03/29 10:57:19;;;;;;;1.35;1.00;;;;;;;4.44;100.00;92083.25;4987121;28;20065;-76
2024/03/29 10:59:49;;;;;;;19.08;1.85;;;;;;;4.47;100.00;92088.69;4984073;28;20034;-77
2024/03/29 11:02:31;;;;;;;3.42;1.83;;;;;;;4.47;100.00;92093.09;4999750;28;20033;-76
2024/03/29 11:05:05;;;;;;;415.67;10.13;;;;;;;4.46;100.00;92092.31;5002664;28;20084;-76
2024/03/29 11:07:34;;;;;;;150.60;4.75;;;;;;;4.50;100.00;92074.44;4998330;28;20053;-76
2024/03/29 11:10:02;;;;;;;4.97;1.70;;;;;;;4.51;100.00;92079.38;4990601;28;20049;-76
2024/03/29 11:12:33;;;;;;;2.47;1.65;;;;;;;4.53;100.00;92084.28;5004368;28;20039;-76
2024/03/29 11:15:09;;;;;;;2.15;1.35;;;;;;;4.59;100.00;92080.66;4977921;28;20042;-76
2024/03/29 11:17:35;;;;;;;2.65;1.60;;;;;;;4.73;100.00;92086.91;5012213;28;20143;-76
2024/03/29 11:20:02;;;;;;;2.97;1.80;;;;;;;4.73;100.00;92079.13;5004094;28;20081;-76
2024/03/29 11:22:29;;;;;;;100.53;4.32;;;;;;;4.70;100.00;92082.22;5002080;28;20116;-76
2024/03/29 11:24:54;;;;;;;77.03;3.85;;;;;;;4.89;100.00;92079.88;5000828;28;20169;-77
2024/03/29 11:27:23;;;;;;;122.18;3.75;;;;;;;4.96;100.00;92079.63;5005366;28;20495;-76
2024/03/29 11:29:50;;;;;;;195.45;5.05;;;;;;;4.80;100.00;92078.84;5009839;28;20072;-76
2024/03/29 11:32:38;;;;;;;143.80;4.53;;;;;;;4.65;100.00;92078.84;5005741;28;20037;-76
2024/03/29 11:35:05;;;;;;;19.88;1.98;;;;;;;4.61;100.00;92078.56;5005531;28;20030;-76